Sturgeon Lake, Minnesota
Current Conditions -  °F | °C
As of 8:14 AM on Monday 26 Jan 2015 (Local Time) from KMZH Reporting Station
Haze Haze  
Wind Chill: 15°   Ceiling: 500
Heat Index: 23°   Visibility: 3mi
Dew Point: 21°   Wind: 7mph
Humidity: 93%   Direction: 190°S
Pressure: 29.63"   Gusts: NA
Location:  46.38°N, 92.82°W
Report Text: KMZH 261414Z AUTO 19006KT 3SM BR OVC005 M05/M06 A2963 RMK AO2
Loading
Personal Weather Stations






























Interactive Weather Map New forecast layout! Learn more

10-Day Weather Forecast

Advertisements
Track Severe Weather on mobile